sensor_id;sensor_type;location;lat;lon;timestamp;P1;durP1;ratioP1;P2;durP2;ratioP2
6937;SDS011;40040;42.706;23.372;2023-02-01T00:00:18;6.33;;;4.37;;
6937;SDS011;40040;42.706;23.372;2023-02-01T00:02:45;7.67;;;4.83;;
6937;SDS011;40040;42.706;23.372;2023-02-01T00:05:12;8.17;;;4.87;;
6937;SDS011;40040;42.706;23.372;2023-02-01T00:07:41;5.07;;;4.23;;
6937;SDS011;40040;42.706;23.372;2023-02-01T00:10:08;5.30;;;3.90;;
6937;SDS011;40040;42.706;23.372;2023-02-01T00:12:36;5.33;;;4.63;;
6937;SDS011;40040;42.706;23.372;2023-02-01T00:15:03;7.27;;;4.70;;
6937;SDS011;40040;42.706;23.372;2023-02-01T00:17:30;5.33;;;4.50;;
6937;SDS011;40040;42.706;23.372;2023-02-01T00:19:57;6.77;;;4.53;;
6937;SDS011;40040;42.706;23.372;2023-02-01T00:22:23;6.33;;;4.20;;
6937;SDS011;40040;42.706;23.372;2023-02-01T00:24:52;5.07;;;3.60;;
6937;SDS011;40040;42.706;23.372;2023-02-01T00:27:19;5.83;;;3.90;;
6937;SDS011;40040;42.706;23.372;2023-02-01T00:29:46;5.37;;;4.80;;
6937;SDS011;40040;42.706;23.372;2023-02-01T00:32:13;6.87;;;4.53;;
6937;SDS011;40040;42.706;23.372;2023-02-01T00:34:40;6.53;;;4.73;;
6937;SDS011;40040;42.706;23.372;2023-02-01T00:37:07;7.03;;;5.17;;
6937;SDS011;40040;42.706;23.372;2023-02-01T00:39:34;7.07;;;5.20;;
6937;SDS011;40040;42.706;23.372;2023-02-01T00:42:02;7.40;;;4.30;;
6937;SDS011;40040;42.706;23.372;2023-02-01T00:44:30;4.30;;;3.50;;
6937;SDS011;40040;42.706;23.372;2023-02-01T00:46:59;6.77;;;4.83;;
6937;SDS011;40040;42.706;23.372;2023-02-01T00:49:26;7.30;;;4.97;;
6937;SDS011;40040;42.706;23.372;2023-02-01T00:51:53;6.93;;;4.33;;
6937;SDS011;40040;42.706;23.372;2023-02-01T00:54:20;6.90;;;4.47;;
6937;SDS011;40040;42.706;23.372;2023-02-01T00:56:47;5.77;;;3.97;;
6937;SDS011;40040;42.706;23.372;2023-02-01T00:59:15;6.47;;;4.30;;
6937;SDS011;40040;42.706;23.372;2023-02-01T01:01:42;6.77;;;4.20;;
6937;SDS011;40040;42.706;23.372;2023-02-01T01:04:09;5.23;;;3.97;;
6937;SDS011;40040;42.706;23.372;2023-02-01T01:06:36;5.87;;;3.50;;
6937;SDS011;40040;42.706;23.372;2023-02-01T01:09:04;3.70;;;3.37;;
6937;SDS011;40040;42.706;23.372;2023-02-01T01:11:34;4.33;;;3.60;;
6937;SDS011;40040;42.706;23.372;2023-02-01T01:14:03;8.03;;;4.20;;
6937;SDS011;40040;42.706;23.372;2023-02-01T01:16:33;4.40;;;3.70;;
6937;SDS011;40040;42.706;23.372;2023-02-01T01:19:00;5.43;;;3.80;;
6937;SDS011;40040;42.706;23.372;2023-02-01T01:21:27;4.37;;;3.30;;
6937;SDS011;40040;42.706;23.372;2023-02-01T01:23:55;3.73;;;2.87;;
6937;SDS011;40040;42.706;23.372;2023-02-01T01:26:22;3.60;;;3.30;;
6937;SDS011;40040;42.706;23.372;2023-02-01T01:28:51;3.03;;;2.73;;
6937;SDS011;40040;42.706;23.372;2023-02-01T01:31:18;5.40;;;3.10;;
6937;SDS011;40040;42.706;23.372;2023-02-01T01:33:52;4.40;;;3.30;;
6937;SDS011;40040;42.706;23.372;2023-02-01T01:36:20;8.17;;;3.93;;
6937;SDS011;40040;42.706;23.372;2023-02-01T01:38:48;4.17;;;3.17;;
6937;SDS011;40040;42.706;23.372;2023-02-01T01:41:16;3.57;;;3.27;;
6937;SDS011;40040;42.706;23.372;2023-02-01T01:43:52;3.70;;;3.40;;
6937;SDS011;40040;42.706;23.372;2023-02-01T01:46:22;5.30;;;3.73;;
6937;SDS011;40040;42.706;23.372;2023-02-01T01:48:50;4.90;;;3.20;;
6937;SDS011;40040;42.706;23.372;2023-02-01T01:51:23;5.13;;;3.33;;
6937;SDS011;40040;42.706;23.372;2023-02-01T01:53:55;5.80;;;3.93;;
6937;SDS011;40040;42.706;23.372;2023-02-01T01:56:27;4.17;;;3.33;;
6937;SDS011;40040;42.706;23.372;2023-02-01T01:58:57;4.70;;;3.60;;
6937;SDS011;40040;42.706;23.372;2023-02-01T02:01:24;5.20;;;2.97;;
6937;SDS011;40040;42.706;23.372;2023-02-01T02:03:52;5.63;;;3.37;;
6937;SDS011;40040;42.706;23.372;2023-02-01T02:06:26;4.73;;;3.90;;
6937;SDS011;40040;42.706;23.372;2023-02-01T02:08:59;4.00;;;3.00;;
6937;SDS011;40040;42.706;23.372;2023-02-01T02:11:26;3.27;;;2.97;;
6937;SDS011;40040;42.706;23.372;2023-02-01T02:13:53;3.00;;;2.80;;
6937;SDS011;40040;42.706;23.372;2023-02-01T02:16:29;4.17;;;2.77;;
6937;SDS011;40040;42.706;23.372;2023-02-01T02:19:22;2.77;;;2.50;;
6937;SDS011;40040;42.706;23.372;2023-02-01T02:22:06;4.63;;;3.20;;
6937;SDS011;40040;42.706;23.372;2023-02-01T02:25:24;4.20;;;3.07;;
6937;SDS011;40040;42.706;23.372;2023-02-01T02:28:11;4.13;;;2.77;;
6937;SDS011;40040;42.706;23.372;2023-02-01T02:31:03;2.87;;;2.20;;
6937;SDS011;40040;42.706;23.372;2023-02-01T02:33:52;6.13;;;3.33;;
6937;SDS011;40040;42.706;23.372;2023-02-01T02:39:15;2.40;;;2.20;;
6937;SDS011;40040;42.706;23.372;2023-02-01T02:41:50;4.77;;;2.43;;
6937;SDS011;40040;42.706;23.372;2023-02-01T02:44:45;3.57;;;2.83;;
6937;SDS011;40040;42.706;23.372;2023-02-01T02:47:33;3.53;;;2.63;;
6937;SDS011;40040;42.706;23.372;2023-02-01T02:50:08;2.83;;;2.60;;
6937;SDS011;40040;42.706;23.372;2023-02-01T02:52:57;3.10;;;2.80;;
6937;SDS011;40040;42.706;23.372;2023-02-01T02:55:46;2.90;;;2.60;;
6937;SDS011;40040;42.706;23.372;2023-02-01T02:58:14;3.23;;;2.80;;
6937;SDS011;40040;42.706;23.372;2023-02-01T03:01:00;2.90;;;2.60;;
6937;SDS011;40040;42.706;23.372;2023-02-01T03:03:47;12.07;;;4.87;;
6937;SDS011;40040;42.706;23.372;2023-02-01T03:06:35;4.37;;;3.57;;
6937;SDS011;40040;42.706;23.372;2023-02-01T03:09:06;4.13;;;3.33;;
6937;SDS011;40040;42.706;23.372;2023-02-01T03:11:38;8.23;;;3.47;;
6937;SDS011;40040;42.706;23.372;2023-02-01T03:14:26;3.60;;;2.60;;
6937;SDS011;40040;42.706;23.372;2023-02-01T03:16:57;3.43;;;2.53;;
6937;SDS011;40040;42.706;23.372;2023-02-01T03:19:31;2.50;;;2.30;;
6937;SDS011;40040;42.706;23.372;2023-02-01T03:22:03;4.17;;;2.87;;
6937;SDS011;40040;42.706;23.372;2023-02-01T03:24:34;5.50;;;3.07;;
6937;SDS011;40040;42.706;23.372;2023-02-01T03:27:05;5.77;;;3.30;;
6937;SDS011;40040;42.706;23.372;2023-02-01T03:29:40;4.53;;;2.30;;
6937;SDS011;40040;42.706;23.372;2023-02-01T03:32:13;8.70;;;4.80;;
6937;SDS011;40040;42.706;23.372;2023-02-01T03:34:40;3.67;;;2.80;;
6937;SDS011;40040;42.706;23.372;2023-02-01T03:37:09;8.60;;;4.03;;
6937;SDS011;40040;42.706;23.372;2023-02-01T03:39:41;5.87;;;4.10;;
6937;SDS011;40040;42.706;23.372;2023-02-01T03:42:14;12.87;;;6.20;;
6937;SDS011;40040;42.706;23.372;2023-02-01T03:44:47;5.63;;;3.20;;
6937;SDS011;40040;42.706;23.372;2023-02-01T03:47:17;10.03;;;5.27;;
6937;SDS011;40040;42.706;23.372;2023-02-01T03:49:48;4.57;;;3.50;;
6937;SDS011;40040;42.706;23.372;2023-02-01T03:52:21;6.73;;;4.73;;
6937;SDS011;40040;42.706;23.372;2023-02-01T03:54:51;4.33;;;3.17;;
6937;SDS011;40040;42.706;23.372;2023-02-01T03:57:20;3.27;;;3.03;;
6937;SDS011;40040;42.706;23.372;2023-02-01T03:59:51;3.47;;;2.53;;
6937;SDS011;40040;42.706;23.372;2023-02-01T04:02:18;5.17;;;2.60;;
6937;SDS011;40040;42.706;23.372;2023-02-01T04:04:45;3.03;;;2.73;;
6937;SDS011;40040;42.706;23.372;2023-02-01T04:07:12;3.40;;;2.50;;
6937;SDS011;40040;42.706;23.372;2023-02-01T04:09:40;2.63;;;2.43;;
6937;SDS011;40040;42.706;23.372;2023-02-01T04:12:07;2.70;;;1.87;;
6937;SDS011;40040;42.706;23.372;2023-02-01T04:14:34;3.17;;;2.87;;
6937;SDS011;40040;42.706;23.372;2023-02-01T04:17:00;7.60;;;4.10;;
6937;SDS011;40040;42.706;23.372;2023-02-01T04:19:28;6.13;;;3.53;;
6937;SDS011;40040;42.706;23.372;2023-02-01T04:21:55;3.80;;;2.57;;
6937;SDS011;40040;42.706;23.372;2023-02-01T04:24:21;5.70;;;2.77;;
6937;SDS011;40040;42.706;23.372;2023-02-01T04:26:50;2.57;;;2.30;;
6937;SDS011;40040;42.706;23.372;2023-02-01T04:29:16;2.53;;;2.33;;
6937;SDS011;40040;42.706;23.372;2023-02-01T04:31:43;3.20;;;2.30;;
6937;SDS011;40040;42.706;23.372;2023-02-01T04:34:11;2.23;;;2.07;;
6937;SDS011;40040;42.706;23.372;2023-02-01T04:36:38;2.23;;;2.10;;
6937;SDS011;40040;42.706;23.372;2023-02-01T04:39:04;2.60;;;2.40;;
6937;SDS011;40040;42.706;23.372;2023-02-01T04:41:31;2.63;;;2.43;;
6937;SDS011;40040;42.706;23.372;2023-02-01T04:43:59;2.10;;;2.00;;
6937;SDS011;40040;42.706;23.372;2023-02-01T04:46:26;4.17;;;2.90;;
6937;SDS011;40040;42.706;23.372;2023-02-01T04:48:53;2.33;;;2.20;;
6937;SDS011;40040;42.706;23.372;2023-02-01T04:51:20;4.07;;;2.67;;
6937;SDS011;40040;42.706;23.372;2023-02-01T04:53:47;2.23;;;2.00;;
6937;SDS011;40040;42.706;23.372;2023-02-01T04:56:14;2.73;;;2.30;;
6937;SDS011;40040;42.706;23.372;2023-02-01T04:58:40;3.83;;;2.30;;
6937;SDS011;40040;42.706;23.372;2023-02-01T05:01:09;3.67;;;3.17;;
6937;SDS011;40040;42.706;23.372;2023-02-01T05:03:35;2.87;;;2.60;;
6937;SDS011;40040;42.706;23.372;2023-02-01T05:06:02;3.77;;;2.63;;
6937;SDS011;40040;42.706;23.372;2023-02-01T05:08:30;5.00;;;3.00;;
6937;SDS011;40040;42.706;23.372;2023-02-01T05:10:58;5.47;;;2.87;;
6937;SDS011;40040;42.706;23.372;2023-02-01T05:13:27;3.80;;;2.70;;
6937;SDS011;40040;42.706;23.372;2023-02-01T05:16:13;8.23;;;3.00;;
6937;SDS011;40040;42.706;23.372;2023-02-01T05:18:41;4.73;;;3.40;;
6937;SDS011;40040;42.706;23.372;2023-02-01T05:21:07;6.53;;;3.90;;
6937;SDS011;40040;42.706;23.372;2023-02-01T05:23:34;5.60;;;4.07;;
6937;SDS011;40040;42.706;23.372;2023-02-01T05:26:21;10.50;;;5.60;;
6937;SDS011;40040;42.706;23.372;2023-02-01T05:28:48;6.50;;;4.33;;
6937;SDS011;40040;42.706;23.372;2023-02-01T05:31:16;7.70;;;5.23;;
6937;SDS011;40040;42.706;23.372;2023-02-01T05:33:43;5.53;;;3.50;;
6937;SDS011;40040;42.706;23.372;2023-02-01T05:36:10;6.03;;;4.03;;
6937;SDS011;40040;42.706;23.372;2023-02-01T05:38:37;3.50;;;3.00;;
6937;SDS011;40040;42.706;23.372;2023-02-01T05:41:04;4.93;;;2.80;;
6937;SDS011;40040;42.706;23.372;2023-02-01T05:43:30;2.67;;;2.47;;
6937;SDS011;40040;42.706;23.372;2023-02-01T05:45:58;3.70;;;3.13;;
6937;SDS011;40040;42.706;23.372;2023-02-01T05:48:27;2.93;;;2.73;;
6937;SDS011;40040;42.706;23.372;2023-02-01T05:50:54;5.70;;;2.77;;
6937;SDS011;40040;42.706;23.372;2023-02-01T05:53:20;3.10;;;2.87;;
6937;SDS011;40040;42.706;23.372;2023-02-01T05:55:47;3.90;;;3.50;;
6937;SDS011;40040;42.706;23.372;2023-02-01T05:58:14;3.47;;;3.13;;
6937;SDS011;40040;42.706;23.372;2023-02-01T06:00:41;3.30;;;3.00;;
6937;SDS011;40040;42.706;23.372;2023-02-01T06:03:08;4.20;;;2.80;;
6937;SDS011;40040;42.706;23.372;2023-02-01T06:05:36;3.90;;;3.20;;
6937;SDS011;40040;42.706;23.372;2023-02-01T06:08:03;4.10;;;3.50;;
6937;SDS011;40040;42.706;23.372;2023-02-01T06:10:32;4.47;;;3.20;;
6937;SDS011;40040;42.706;23.372;2023-02-01T06:12:59;5.70;;;3.57;;
6937;SDS011;40040;42.706;23.372;2023-02-01T06:15:28;3.53;;;3.10;;
6937;SDS011;40040;42.706;23.372;2023-02-01T06:17:55;6.73;;;2.93;;
6937;SDS011;40040;42.706;23.372;2023-02-01T06:20:22;5.43;;;2.60;;
6937;SDS011;40040;42.706;23.372;2023-02-01T06:22:51;8.67;;;3.50;;
6937;SDS011;40040;42.706;23.372;2023-02-01T06:25:18;3.93;;;3.20;;
6937;SDS011;40040;42.706;23.372;2023-02-01T06:27:46;4.00;;;3.10;;
6937;SDS011;40040;42.706;23.372;2023-02-01T06:30:13;4.87;;;3.43;;
6937;SDS011;40040;42.706;23.372;2023-02-01T06:32:40;7.20;;;4.40;;
6937;SDS011;40040;42.706;23.372;2023-02-01T06:35:08;5.10;;;3.30;;
6937;SDS011;40040;42.706;23.372;2023-02-01T06:37:36;4.03;;;3.40;;
6937;SDS011;40040;42.706;23.372;2023-02-01T06:40:05;5.43;;;3.47;;
6937;SDS011;40040;42.706;23.372;2023-02-01T06:42:32;3.53;;;2.50;;
6937;SDS011;40040;42.706;23.372;2023-02-01T06:44:59;4.00;;;2.63;;
6937;SDS011;40040;42.706;23.372;2023-02-01T06:47:26;2.80;;;2.60;;
6937;SDS011;40040;42.706;23.372;2023-02-01T06:49:53;3.50;;;2.80;;
6937;SDS011;40040;42.706;23.372;2023-02-01T06:52:20;3.23;;;2.93;;
6937;SDS011;40040;42.706;23.372;2023-02-01T06:54:46;5.90;;;3.20;;
6937;SDS011;40040;42.706;23.372;2023-02-01T06:57:15;4.73;;;3.10;;
6937;SDS011;40040;42.706;23.372;2023-02-01T06:59:42;5.23;;;3.53;;
6937;SDS011;40040;42.706;23.372;2023-02-01T07:02:09;3.00;;;2.40;;
6937;SDS011;40040;42.706;23.372;2023-02-01T07:04:37;3.37;;;2.60;;
6937;SDS011;40040;42.706;23.372;2023-02-01T07:07:03;2.77;;;2.57;;
6937;SDS011;40040;42.706;23.372;2023-02-01T07:09:30;2.90;;;2.70;;
6937;SDS011;40040;42.706;23.372;2023-02-01T07:11:57;2.63;;;2.43;;
6937;SDS011;40040;42.706;23.372;2023-02-01T07:14:25;4.60;;;2.67;;
6937;SDS011;40040;42.706;23.372;2023-02-01T07:16:52;5.53;;;3.60;;
6937;SDS011;40040;42.706;23.372;2023-02-01T07:19:19;3.63;;;3.30;;
6937;SDS011;40040;42.706;23.372;2023-02-01T07:21:46;3.33;;;2.87;;
6937;SDS011;40040;42.706;23.372;2023-02-01T07:24:12;5.40;;;3.90;;
6937;SDS011;40040;42.706;23.372;2023-02-01T07:26:39;4.63;;;3.53;;
6937;SDS011;40040;42.706;23.372;2023-02-01T07:29:06;5.77;;;3.73;;
6937;SDS011;40040;42.706;23.372;2023-02-01T07:31:34;7.30;;;3.60;;
6937;SDS011;40040;42.706;23.372;2023-02-01T07:34:01;5.10;;;3.40;;
6937;SDS011;40040;42.706;23.372;2023-02-01T07:36:28;4.57;;;3.00;;
6937;SDS011;40040;42.706;23.372;2023-02-01T07:38:55;4.03;;;3.60;;
6937;SDS011;40040;42.706;23.372;2023-02-01T07:41:24;4.57;;;3.00;;
6937;SDS011;40040;42.706;23.372;2023-02-01T07:43:52;7.60;;;3.90;;
6937;SDS011;40040;42.706;23.372;2023-02-01T07:46:19;10.13;;;4.73;;
6937;SDS011;40040;42.706;23.372;2023-02-01T07:48:48;6.73;;;4.33;;
6937;SDS011;40040;42.706;23.372;2023-02-01T07:51:15;5.30;;;3.60;;
6937;SDS011;40040;42.706;23.372;2023-02-01T07:53:43;6.03;;;4.00;;
6937;SDS011;40040;42.706;23.372;2023-02-01T07:56:11;6.13;;;3.23;;
6937;SDS011;40040;42.706;23.372;2023-02-01T07:58:39;6.80;;;4.10;;
6937;SDS011;40040;42.706;23.372;2023-02-01T08:01:10;7.13;;;3.60;;
6937;SDS011;40040;42.706;23.372;2023-02-01T08:03:49;4.33;;;3.60;;
6937;SDS011;40040;42.706;23.372;2023-02-01T08:06:17;8.43;;;4.30;;
6937;SDS011;40040;42.706;23.372;2023-02-01T08:08:45;4.77;;;3.53;;
6937;SDS011;40040;42.706;23.372;2023-02-01T08:11:12;5.90;;;4.33;;
6937;SDS011;40040;42.706;23.372;2023-02-01T08:13:40;6.97;;;3.90;;
6937;SDS011;40040;42.706;23.372;2023-02-01T08:16:07;4.17;;;3.10;;
6937;SDS011;40040;42.706;23.372;2023-02-01T08:18:36;7.77;;;4.40;;
6937;SDS011;40040;42.706;23.372;2023-02-01T08:21:05;7.77;;;4.83;;
6937;SDS011;40040;42.706;23.372;2023-02-01T08:23:33;23.47;;;10.70;;
6937;SDS011;40040;42.706;23.372;2023-02-01T08:26:05;15.77;;;6.20;;
6937;SDS011;40040;42.706;23.372;2023-02-01T08:28:36;4.07;;;3.30;;
6937;SDS011;40040;42.706;23.372;2023-02-01T08:31:04;7.20;;;3.93;;
6937;SDS011;40040;42.706;23.372;2023-02-01T08:33:32;5.07;;;3.27;;
6937;SDS011;40040;42.706;23.372;2023-02-01T08:36:00;3.57;;;2.83;;
6937;SDS011;40040;42.706;23.372;2023-02-01T08:38:29;4.23;;;2.67;;
6937;SDS011;40040;42.706;23.372;2023-02-01T08:40:56;8.23;;;6.33;;
6937;SDS011;40040;42.706;23.372;2023-02-01T08:43:23;8.87;;;4.17;;
6937;SDS011;40040;42.706;23.372;2023-02-01T08:45:50;12.13;;;4.70;;
6937;SDS011;40040;42.706;23.372;2023-02-01T08:48:21;5.33;;;3.60;;
6937;SDS011;40040;42.706;23.372;2023-02-01T08:50:47;7.70;;;4.70;;
6937;SDS011;40040;42.706;23.372;2023-02-01T08:53:14;5.23;;;3.97;;
6937;SDS011;40040;42.706;23.372;2023-02-01T08:55:42;5.80;;;3.57;;
6937;SDS011;40040;42.706;23.372;2023-02-01T08:58:11;6.83;;;2.53;;
6937;SDS011;40040;42.706;23.372;2023-02-01T09:00:39;3.67;;;3.33;;
6937;SDS011;40040;42.706;23.372;2023-02-01T09:03:07;3.63;;;3.17;;
6937;SDS011;40040;42.706;23.372;2023-02-01T09:05:36;4.67;;;3.30;;
6937;SDS011;40040;42.706;23.372;2023-02-01T09:08:03;8.07;;;3.07;;
6937;SDS011;40040;42.706;23.372;2023-02-01T09:10:30;6.97;;;4.27;;
6937;SDS011;40040;42.706;23.372;2023-02-01T09:12:58;4.37;;;3.03;;
6937;SDS011;40040;42.706;23.372;2023-02-01T09:15:25;6.60;;;2.80;;
6937;SDS011;40040;42.706;23.372;2023-02-01T09:17:52;3.13;;;2.50;;
6937;SDS011;40040;42.706;23.372;2023-02-01T09:20:18;4.57;;;3.10;;
6937;SDS011;40040;42.706;23.372;2023-02-01T09:22:49;7.17;;;3.20;;
6937;SDS011;40040;42.706;23.372;2023-02-01T09:25:16;2.73;;;2.50;;
6937;SDS011;40040;42.706;23.372;2023-02-01T09:27:43;3.00;;;2.30;;
6937;SDS011;40040;42.706;23.372;2023-02-01T09:30:11;3.27;;;1.90;;
6937;SDS011;40040;42.706;23.372;2023-02-01T09:32:39;3.47;;;2.50;;
6937;SDS011;40040;42.706;23.372;2023-02-01T09:35:06;3.83;;;2.37;;
6937;SDS011;40040;42.706;23.372;2023-02-01T09:37:33;6.30;;;2.63;;
6937;SDS011;40040;42.706;23.372;2023-02-01T09:39:59;4.07;;;2.40;;
6937;SDS011;40040;42.706;23.372;2023-02-01T09:42:33;2.90;;;2.60;;
6937;SDS011;40040;42.706;23.372;2023-02-01T09:45:16;5.93;;;3.23;;
6937;SDS011;40040;42.706;23.372;2023-02-01T09:47:51;5.97;;;2.80;;
6937;SDS011;40040;42.706;23.372;2023-02-01T09:50:22;6.67;;;3.20;;
6937;SDS011;40040;42.706;23.372;2023-02-01T09:52:55;3.30;;;2.50;;
6937;SDS011;40040;42.706;23.372;2023-02-01T09:55:30;7.87;;;4.47;;
6937;SDS011;40040;42.706;23.372;2023-02-01T09:58:04;4.13;;;3.63;;
6937;SDS011;40040;42.706;23.372;2023-02-01T10:00:36;4.97;;;2.60;;
6937;SDS011;40040;42.706;23.372;2023-02-01T10:03:05;4.13;;;2.97;;
6937;SDS011;40040;42.706;23.372;2023-02-01T10:05:48;5.03;;;3.67;;
6937;SDS011;40040;42.706;23.372;2023-02-01T10:08:29;3.67;;;2.33;;
6937;SDS011;40040;42.706;23.372;2023-02-01T10:11:04;5.30;;;2.70;;
6937;SDS011;40040;42.706;23.372;2023-02-01T10:13:43;6.20;;;2.97;;
6937;SDS011;40040;42.706;23.372;2023-02-01T10:16:22;2.40;;;2.20;;
6937;SDS011;40040;42.706;23.372;2023-02-01T10:19:06;3.20;;;2.90;;
6937;SDS011;40040;42.706;23.372;2023-02-01T10:21:51;5.63;;;2.70;;
6937;SDS011;40040;42.706;23.372;2023-02-01T10:24:29;5.50;;;3.20;;
6937;SDS011;40040;42.706;23.372;2023-02-01T10:27:06;4.87;;;2.80;;
6937;SDS011;40040;42.706;23.372;2023-02-01T10:29:39;2.63;;;2.30;;
6937;SDS011;40040;42.706;23.372;2023-02-01T10:32:13;3.93;;;3.17;;
6937;SDS011;40040;42.706;23.372;2023-02-01T10:34:42;4.50;;;3.27;;
6937;SDS011;40040;42.706;23.372;2023-02-01T10:37:15;1.90;;;1.80;;
6937;SDS011;40040;42.706;23.372;2023-02-01T10:39:49;3.73;;;2.63;;
6937;SDS011;40040;42.706;23.372;2023-02-01T10:42:21;1.87;;;1.87;;
6937;SDS011;40040;42.706;23.372;2023-02-01T10:44:51;3.90;;;1.83;;
6937;SDS011;40040;42.706;23.372;2023-02-01T10:47:22;2.10;;;2.00;;
6937;SDS011;40040;42.706;23.372;2023-02-01T10:49:50;4.13;;;2.33;;
6937;SDS011;40040;42.706;23.372;2023-02-01T10:52:24;18.00;;;7.73;;
6937;SDS011;40040;42.706;23.372;2023-02-01T10:57:57;2.23;;;2.10;;
6937;SDS011;40040;42.706;23.372;2023-02-01T11:00:24;3.97;;;2.33;;
6937;SDS011;40040;42.706;23.372;2023-02-01T11:02:53;5.03;;;2.63;;
6937;SDS011;40040;42.706;23.372;2023-02-01T11:05:21;5.87;;;3.20;;
6937;SDS011;40040;42.706;23.372;2023-02-01T11:07:49;3.70;;;2.30;;
6937;SDS011;40040;42.706;23.372;2023-02-01T11:10:36;3.90;;;2.20;;
6937;SDS011;40040;42.706;23.372;2023-02-01T11:13:11;4.20;;;2.63;;
6937;SDS011;40040;42.706;23.372;2023-02-01T11:15:42;8.13;;;5.00;;
6937;SDS011;40040;42.706;23.372;2023-02-01T11:18:17;5.33;;;2.70;;
6937;SDS011;40040;42.706;23.372;2023-02-01T11:20:45;3.43;;;2.00;;
6937;SDS011;40040;42.706;23.372;2023-02-01T11:23:14;1.80;;;1.70;;
6937;SDS011;40040;42.706;23.372;2023-02-01T11:25:49;2.73;;;2.13;;
6937;SDS011;40040;42.706;23.372;2023-02-01T11:28:18;4.30;;;2.27;;
6937;SDS011;40040;42.706;23.372;2023-02-01T11:30:48;2.20;;;2.00;;
6937;SDS011;40040;42.706;23.372;2023-02-01T11:33:19;3.23;;;1.90;;
6937;SDS011;40040;42.706;23.372;2023-02-01T11:35:50;2.10;;;1.90;;
6937;SDS011;40040;42.706;23.372;2023-02-01T11:38:20;2.13;;;1.85;;
6937;SDS011;40040;42.706;23.372;2023-02-01T11:40:51;1.70;;;1.60;;
6937;SDS011;40040;42.706;23.372;2023-02-01T11:43:22;1.93;;;1.73;;
6937;SDS011;40040;42.706;23.372;2023-02-01T11:45:53;5.63;;;2.13;;
6937;SDS011;40040;42.706;23.372;2023-02-01T11:48:24;1.38;;;1.33;;
6937;SDS011;40040;42.706;23.372;2023-02-01T11:50:54;2.60;;;1.98;;
6937;SDS011;40040;42.706;23.372;2023-02-01T11:53:38;1.80;;;1.70;;
6937;SDS011;40040;42.706;23.372;2023-02-01T11:56:19;3.72;;;1.15;;
6937;SDS011;40040;42.706;23.372;2023-02-01T11:59:05;2.00;;;1.90;;
6937;SDS011;40040;42.706;23.372;2023-02-01T12:01:55;2.65;;;1.80;;
6937;SDS011;40040;42.706;23.372;2023-02-01T12:04:53;2.25;;;1.73;;
6937;SDS011;40040;42.706;23.372;2023-02-01T12:07:33;1.85;;;1.75;;
6937;SDS011;40040;42.706;23.372;2023-02-01T12:10:16;1.70;;;1.60;;
6937;SDS011;40040;42.706;23.372;2023-02-01T12:12:55;2.15;;;2.05;;
6937;SDS011;40040;42.706;23.372;2023-02-01T12:15:36;2.45;;;2.22;;
6937;SDS011;40040;42.706;23.372;2023-02-01T12:18:23;2.63;;;2.25;;
6937;SDS011;40040;42.706;23.372;2023-02-01T12:21:22;2.72;;;2.15;;
6937;SDS011;40040;42.706;23.372;2023-02-01T12:24:06;1.70;;;1.60;;
6937;SDS011;40040;42.706;23.372;2023-02-01T12:26:50;2.00;;;1.77;;
6937;SDS011;40040;42.706;23.372;2023-02-01T12:29:33;2.92;;;2.40;;
6937;SDS011;40040;42.706;23.372;2023-02-01T12:32:11;2.03;;;1.83;;
6937;SDS011;40040;42.706;23.372;2023-02-01T12:34:58;2.42;;;2.17;;
6937;SDS011;40040;42.706;23.372;2023-02-01T12:37:54;4.07;;;1.60;;
6937;SDS011;40040;42.706;23.372;2023-02-01T12:40:34;2.22;;;1.42;;
6937;SDS011;40040;42.706;23.372;2023-02-01T12:43:11;1.95;;;1.60;;
6937;SDS011;40040;42.706;23.372;2023-02-01T12:45:48;2.47;;;2.28;;
6937;SDS011;40040;42.706;23.372;2023-02-01T12:48:23;2.03;;;1.65;;
6937;SDS011;40040;42.706;23.372;2023-02-01T12:50:55;1.98;;;1.88;;
6937;SDS011;40040;42.706;23.372;2023-02-01T12:53:30;1.50;;;1.40;;
6937;SDS011;40040;42.706;23.372;2023-02-01T12:56:09;1.98;;;1.80;;
6937;SDS011;40040;42.706;23.372;2023-02-01T12:58:41;2.17;;;1.50;;
6937;SDS011;40040;42.706;23.372;2023-02-01T13:01:12;1.90;;;1.70;;
6937;SDS011;40040;42.706;23.372;2023-02-01T13:03:44;2.28;;;2.08;;
6937;SDS011;40040;42.706;23.372;2023-02-01T13:06:20;1.77;;;1.55;;
6937;SDS011;40040;42.706;23.372;2023-02-01T13:08:53;3.08;;;1.50;;
6937;SDS011;40040;42.706;23.372;2023-02-01T13:11:27;2.35;;;1.83;;
6937;SDS011;40040;42.706;23.372;2023-02-01T13:13:59;1.40;;;1.40;;
6937;SDS011;40040;42.706;23.372;2023-02-01T13:16:30;3.63;;;1.85;;
6937;SDS011;40040;42.706;23.372;2023-02-01T13:19:00;1.95;;;1.60;;
6937;SDS011;40040;42.706;23.372;2023-02-01T13:21:37;1.48;;;1.38;;
6937;SDS011;40040;42.706;23.372;2023-02-01T13:24:26;2.27;;;2.07;;
6937;SDS011;40040;42.706;23.372;2023-02-01T13:26:58;3.13;;;1.90;;
6937;SDS011;40040;42.706;23.372;2023-02-01T13:29:25;1.73;;;1.60;;
6937;SDS011;40040;42.706;23.372;2023-02-01T13:32:02;1.50;;;1.40;;
6937;SDS011;40040;42.706;23.372;2023-02-01T13:35:03;2.67;;;1.30;;
6937;SDS011;40040;42.706;23.372;2023-02-01T13:37:56;1.50;;;1.47;;
6937;SDS011;40040;42.706;23.372;2023-02-01T13:40:47;2.57;;;2.07;;
6937;SDS011;40040;42.706;23.372;2023-02-01T13:43:22;1.83;;;1.73;;
6937;SDS011;40040;42.706;23.372;2023-02-01T13:45:53;5.73;;;2.10;;
6937;SDS011;40040;42.706;23.372;2023-02-01T13:48:24;2.93;;;2.13;;
6937;SDS011;40040;42.706;23.372;2023-02-01T13:50:56;2.67;;;1.80;;
6937;SDS011;40040;42.706;23.372;2023-02-01T13:53:28;2.20;;;2.00;;
6937;SDS011;40040;42.706;23.372;2023-02-01T13:55:59;2.00;;;1.90;;
6937;SDS011;40040;42.706;23.372;2023-02-01T13:58:31;2.00;;;1.90;;
6937;SDS011;40040;42.706;23.372;2023-02-01T14:07:15;2.37;;;2.00;;
6937;SDS011;40040;42.706;23.372;2023-02-01T14:09:44;1.87;;;1.73;;
6937;SDS011;40040;42.706;23.372;2023-02-01T14:15:18;5.50;;;1.70;;
6937;SDS011;40040;42.706;23.372;2023-02-01T14:17:50;1.97;;;1.80;;
6937;SDS011;40040;42.706;23.372;2023-02-01T14:23:20;2.17;;;1.97;;
6937;SDS011;40040;42.706;23.372;2023-02-01T14:26:00;2.23;;;1.90;;
6937;SDS011;40040;42.706;23.372;2023-02-01T14:28:31;2.10;;;1.70;;
6937;SDS011;40040;42.706;23.372;2023-02-01T14:30:58;2.47;;;2.27;;
6937;SDS011;40040;42.706;23.372;2023-02-01T14:33:26;2.10;;;2.00;;
6937;SDS011;40040;42.706;23.372;2023-02-01T14:36:00;2.60;;;2.00;;
6937;SDS011;40040;42.706;23.372;2023-02-01T14:38:31;5.77;;;4.33;;
6937;SDS011;40040;42.706;23.372;2023-02-01T14:53:10;2.00;;;1.80;;
6937;SDS011;40040;42.706;23.372;2023-02-01T14:55:45;2.77;;;1.83;;
6937;SDS011;40040;42.706;23.372;2023-02-01T14:58:16;1.70;;;1.60;;
6937;SDS011;40040;42.706;23.372;2023-02-01T15:00:59;3.07;;;1.70;;
6937;SDS011;40040;42.706;23.372;2023-02-01T15:06:27;2.23;;;2.03;;
6937;SDS011;40040;42.706;23.372;2023-02-01T15:08:58;3.83;;;2.70;;
6937;SDS011;40040;42.706;23.372;2023-02-01T15:11:28;2.30;;;1.77;;
6937;SDS011;40040;42.706;23.372;2023-02-01T15:13:55;2.40;;;2.20;;
6937;SDS011;40040;42.706;23.372;2023-02-01T15:16:24;2.83;;;2.57;;
6937;SDS011;40040;42.706;23.372;2023-02-01T15:19:06;6.83;;;3.30;;
6937;SDS011;40040;42.706;23.372;2023-02-01T15:21:41;4.50;;;2.80;;
6937;SDS011;40040;42.706;23.372;2023-02-01T15:24:11;4.53;;;3.20;;
6937;SDS011;40040;42.706;23.372;2023-02-01T15:26:39;3.10;;;2.70;;
6937;SDS011;40040;42.706;23.372;2023-02-01T15:29:09;3.77;;;2.57;;
6937;SDS011;40040;42.706;23.372;2023-02-01T15:31:40;4.13;;;3.00;;
6937;SDS011;40040;42.706;23.372;2023-02-01T15:34:08;2.50;;;2.30;;
6937;SDS011;40040;42.706;23.372;2023-02-01T15:36:35;4.37;;;3.20;;
6937;SDS011;40040;42.706;23.372;2023-02-01T15:41:55;4.20;;;3.50;;
6937;SDS011;40040;42.706;23.372;2023-02-01T15:44:31;4.17;;;3.77;;
6937;SDS011;40040;42.706;23.372;2023-02-01T15:47:04;7.87;;;4.60;;
6937;SDS011;40040;42.706;23.372;2023-02-01T15:49:36;4.03;;;2.50;;